createdAt,value
2023-03-20T00:00:47.639Z,1009.53
2023-03-20T00:01:46.799Z,1009.63
2023-03-20T00:02:47.025Z,1009.59
2023-03-20T00:03:47.231Z,1009.54
2023-03-20T00:04:48.232Z,1009.61
2023-03-20T00:05:48.144Z,1009.66
2023-03-20T00:06:47.677Z,1009.63
2023-03-20T00:07:47.890Z,1009.66
2023-03-20T00:08:48.078Z,1009.63
2023-03-20T00:09:48.305Z,1009.62
2023-03-20T00:10:48.484Z,1009.66
2023-03-20T00:11:48.667Z,1009.62
2023-03-20T00:12:48.878Z,1009.60
2023-03-20T00:13:49.050Z,1009.63
2023-03-20T00:14:49.277Z,1009.59
2023-03-20T00:15:50.168Z,1009.60
2023-03-20T00:16:49.688Z,1009.63
2023-03-20T00:17:49.870Z,1009.64
2023-03-20T00:18:50.041Z,1009.63
2023-03-20T00:19:50.234Z,1009.64
2023-03-20T00:20:50.400Z,1009.59
2023-03-20T00:21:50.579Z,1009.67
2023-03-20T00:22:50.784Z,1009.72
2023-03-20T00:23:51.509Z,1009.66
2023-03-20T00:24:52.641Z,1009.74
2023-03-20T00:25:52.181Z,1009.68
2023-03-20T00:26:52.182Z,1009.73
2023-03-20T00:27:52.846Z,1009.75
2023-03-20T00:28:52.202Z,1009.74
2023-03-20T00:29:52.132Z,1009.78
2023-03-20T00:30:52.289Z,1009.85
2023-03-20T00:31:52.551Z,1009.78
2023-03-20T00:32:52.736Z,1009.76
2023-03-20T00:33:52.782Z,1009.77
2023-03-20T00:34:54.645Z,1009.75
2023-03-20T00:35:53.206Z,1009.77
2023-03-20T00:36:53.390Z,1009.81
2023-03-20T00:37:53.550Z,1009.84
2023-03-20T00:38:54.198Z,1009.84
2023-03-20T00:39:53.827Z,1009.87
2023-03-20T00:40:53.955Z,1009.85
2023-03-20T00:41:54.139Z,1009.92
2023-03-20T00:42:54.292Z,1009.83
2023-03-20T00:43:54.435Z,1009.85
2023-03-20T00:44:54.648Z,1009.87
2023-03-20T00:45:56.147Z,1009.82
2023-03-20T00:46:55.107Z,1009.83
2023-03-20T00:47:55.167Z,1009.91
2023-03-20T00:48:55.316Z,1009.84
2023-03-20T00:49:55.474Z,1009.96
2023-03-20T00:50:55.656Z,1009.90
2023-03-20T00:51:55.825Z,1009.86
2023-03-20T00:52:55.959Z,1010.05
2023-03-20T00:53:56.095Z,1010.11
2023-03-20T00:54:57.153Z,1010.11
2023-03-20T00:55:57.198Z,1010.14
2023-03-20T00:56:56.602Z,1010.08
2023-03-20T00:57:56.752Z,1010.16
2023-03-20T00:58:56.892Z,1010.15
2023-03-20T00:59:57.049Z,1010.12
2023-03-20T01:00:57.230Z,1010.19
2023-03-20T01:01:57.455Z,1010.15
2023-03-20T01:02:59.155Z,1010.18
2023-03-20T01:03:58.661Z,1010.21
2023-03-20T01:04:57.912Z,1010.19
2023-03-20T01:05:58.153Z,1010.21
2023-03-20T01:06:58.301Z,1010.22
2023-03-20T01:07:58.512Z,1010.20
2023-03-20T01:08:58.691Z,1010.18
2023-03-20T01:09:58.851Z,1010.20
2023-03-20T01:10:58.985Z,1010.21
2023-03-20T01:11:59.141Z,1010.26
2023-03-20T01:12:59.287Z,1010.24
2023-03-20T01:14:00.097Z,1010.25
2023-03-20T01:14:59.627Z,1010.19
2023-03-20T01:16:00.589Z,1010.27
2023-03-20T01:17:00.018Z,1010.34
2023-03-20T01:18:00.693Z,1010.32
2023-03-20T01:19:00.380Z,1010.34
2023-03-20T01:20:00.544Z,1010.32
2023-03-20T01:21:00.714Z,1010.28
2023-03-20T01:22:02.678Z,1010.32
2023-03-20T01:23:01.046Z,1010.32
2023-03-20T01:24:02.153Z,1010.26
2023-03-20T01:25:01.396Z,1010.23
2023-03-20T01:26:01.569Z,1010.34
2023-03-20T01:27:01.722Z,1010.34
2023-03-20T01:28:01.871Z,1010.35
2023-03-20T01:29:02.023Z,1010.36
2023-03-20T01:30:02.181Z,1010.34
2023-03-20T01:31:02.352Z,1010.38
2023-03-20T01:32:02.511Z,1010.38
2023-03-20T01:33:02.770Z,1010.36
2023-03-20T01:34:03.707Z,1010.34
2023-03-20T01:35:03.082Z,1010.34
2023-03-20T01:36:03.307Z,1010.34
2023-03-20T01:37:03.397Z,1010.36
2023-03-20T01:38:04.200Z,1010.37
2023-03-20T01:39:04.210Z,1010.45
2023-03-20T01:40:03.847Z,1010.41
2023-03-20T01:41:04.657Z,1010.45
2023-03-20T01:42:04.232Z,1010.46
2023-03-20T01:43:04.417Z,1010.49
2023-03-20T01:44:04.605Z,1010.51
2023-03-20T01:45:05.710Z,1010.53
2023-03-20T01:46:05.083Z,1010.57
2023-03-20T01:47:05.195Z,1010.58
2023-03-20T01:48:07.106Z,1010.60
2023-03-20T01:49:06.199Z,1010.65
2023-03-20T01:50:05.853Z,1010.64
2023-03-20T01:51:06.667Z,1010.59
2023-03-20T01:52:06.216Z,1010.68
2023-03-20T01:53:07.050Z,1010.69
2023-03-20T01:54:06.595Z,1010.67
2023-03-20T01:55:07.668Z,1010.67
2023-03-20T01:56:07.665Z,1010.71
2023-03-20T01:57:07.668Z,1010.71
2023-03-20T01:58:07.251Z,1010.75
2023-03-20T01:59:07.399Z,1010.76
2023-03-20T02:00:08.176Z,1010.75
2023-03-20T02:01:08.718Z,1010.73
2023-03-20T02:02:08.217Z,1010.73
2023-03-20T02:03:08.101Z,1010.74
2023-03-20T02:04:08.269Z,1010.82
2023-03-20T02:05:08.515Z,1010.86
2023-03-20T02:06:08.561Z,1010.85
2023-03-20T02:07:08.719Z,1010.81
2023-03-20T02:08:08.877Z,1010.87
2023-03-20T02:09:10.186Z,1010.87
2023-03-20T02:10:09.703Z,1010.86
2023-03-20T02:11:09.359Z,1010.80
2023-03-20T02:12:09.511Z,1010.80
2023-03-20T02:13:09.705Z,1010.86
2023-03-20T02:14:09.858Z,1010.83
2023-03-20T02:15:11.173Z,1010.78
2023-03-20T02:16:10.170Z,1010.82
2023-03-20T02:17:10.349Z,1010.93
2023-03-20T02:18:10.568Z,1010.84
2023-03-20T02:19:10.730Z,1010.88
2023-03-20T02:20:10.892Z,1010.79
2023-03-20T02:21:11.709Z,1010.75
2023-03-20T02:22:12.180Z,1010.75
2023-03-20T02:23:12.171Z,1010.69
2023-03-20T02:24:13.675Z,1010.66
2023-03-20T02:25:11.809Z,1010.70
2023-03-20T02:26:11.990Z,1010.73
2023-03-20T02:27:12.675Z,1010.72
2023-03-20T02:28:12.734Z,1010.72
2023-03-20T02:29:14.175Z,1010.74
2023-03-20T02:30:13.672Z,1010.81
2023-03-20T02:31:12.938Z,1010.86
2023-03-20T02:32:13.677Z,1010.80
2023-03-20T02:33:13.252Z,1010.80
2023-03-20T02:34:15.176Z,1010.83
2023-03-20T02:35:13.483Z,1010.79
2023-03-20T02:36:13.689Z,1010.82
2023-03-20T02:37:14.684Z,1010.86
2023-03-20T02:38:14.090Z,1010.89
2023-03-20T02:39:14.240Z,1010.95
2023-03-20T02:40:15.672Z,1010.94
2023-03-20T02:41:14.660Z,1011.00
2023-03-20T02:42:14.778Z,1010.97
2023-03-20T02:43:14.933Z,1010.99
2023-03-20T02:44:15.089Z,1011.02
2023-03-20T02:45:15.264Z,1011.01
2023-03-20T02:46:15.447Z,1011.01
2023-03-20T02:47:15.624Z,1011.02
2023-03-20T02:48:15.800Z,1011.14
2023-03-20T02:49:16.714Z,1011.12
2023-03-20T02:50:16.119Z,1011.14
2023-03-20T02:51:17.177Z,1011.18
2023-03-20T02:52:16.442Z,1011.12
2023-03-20T02:53:16.647Z,1011.15
2023-03-20T02:54:18.675Z,1011.15
2023-03-20T02:55:18.686Z,1011.13
2023-03-20T02:56:17.212Z,1011.13
2023-03-20T02:57:17.410Z,1011.11
2023-03-20T02:58:17.614Z,1011.10
2023-03-20T02:59:17.770Z,1011.07
2023-03-20T03:00:18.545Z,1011.10
2023-03-20T03:01:18.700Z,1011.06
2023-03-20T03:02:18.768Z,1011.02
2023-03-20T03:03:18.359Z,1011.01
2023-03-20T03:04:18.532Z,1011.05
2023-03-20T03:05:18.692Z,1011.11
2023-03-20T03:06:19.689Z,1011.14
2023-03-20T03:07:19.061Z,1011.09
2023-03-20T03:08:19.217Z,1011.03
2023-03-20T03:09:19.368Z,1011.04
2023-03-20T03:10:20.180Z,1011.07
2023-03-20T03:11:19.695Z,1011.07
2023-03-20T03:12:19.845Z,1011.07
2023-03-20T03:13:20.687Z,1011.11
2023-03-20T03:14:20.194Z,1011.07
2023-03-20T03:15:20.318Z,1011.05
2023-03-20T03:16:20.557Z,1011.12
2023-03-20T03:17:20.623Z,1011.07
2023-03-20T03:18:22.685Z,1011.14
2023-03-20T03:19:20.901Z,1011.17
2023-03-20T03:20:22.058Z,1011.21
2023-03-20T03:21:22.196Z,1011.17
2023-03-20T03:22:21.451Z,1011.19
2023-03-20T03:23:23.557Z,1011.19
2023-03-20T03:24:33.184Z,1011.20
2023-03-20T03:25:24.692Z,1011.21
2023-03-20T03:26:23.188Z,1011.27
2023-03-20T03:27:22.218Z,1011.30
2023-03-20T03:28:22.381Z,1011.21
2023-03-20T03:29:22.570Z,1011.22
2023-03-20T03:30:22.748Z,1011.22
2023-03-20T03:31:22.992Z,1011.23
2023-03-20T03:32:23.102Z,1011.31
2023-03-20T03:33:23.273Z,1011.33
2023-03-20T03:34:23.453Z,1011.39
2023-03-20T03:35:24.187Z,1011.37
2023-03-20T03:36:24.726Z,1011.33
2023-03-20T03:37:23.986Z,1011.31
2023-03-20T03:38:24.162Z,1011.34
2023-03-20T03:39:24.338Z,1011.38
2023-03-20T03:40:24.498Z,1011.38
2023-03-20T03:41:24.700Z,1011.34
2023-03-20T03:42:25.726Z,1011.44
2023-03-20T03:43:24.987Z,1011.48
2023-03-20T03:44:25.694Z,1011.39
2023-03-20T03:45:25.358Z,1011.42
2023-03-20T03:46:27.079Z,1011.37
2023-03-20T03:47:26.698Z,1011.47
2023-03-20T03:48:26.732Z,1011.40
2023-03-20T03:49:27.055Z,1011.38
2023-03-20T03:50:26.303Z,1011.36
2023-03-20T03:51:26.464Z,1011.38
2023-03-20T03:52:26.642Z,1011.43
2023-03-20T03:53:26.805Z,1011.38
2023-03-20T03:54:28.702Z,1011.36
2023-03-20T03:55:27.207Z,1011.39
2023-03-20T03:56:28.232Z,1011.40
2023-03-20T03:57:28.696Z,1011.32
2023-03-20T03:58:28.199Z,1011.26
2023-03-20T03:59:28.559Z,1011.21
2023-03-20T04:00:28.711Z,1011.17
2023-03-20T04:01:29.314Z,1011.15
2023-03-20T04:02:28.384Z,1011.17
2023-03-20T04:03:28.525Z,1011.14
2023-03-20T04:04:28.726Z,1011.18
2023-03-20T04:05:28.917Z,1011.17
2023-03-20T04:06:29.064Z,1011.11
2023-03-20T04:07:30.197Z,1011.11
2023-03-20T04:08:31.062Z,1011.08
2023-03-20T04:09:29.698Z,1011.08
2023-03-20T04:10:29.832Z,1011.08
2023-03-20T04:11:30.003Z,1011.04
2023-03-20T04:12:30.160Z,1011.02
2023-03-20T04:13:30.339Z,1010.97
2023-03-20T04:14:30.775Z,1010.92
2023-03-20T04:15:30.666Z,1010.93
2023-03-20T04:16:30.849Z,1010.98
2023-03-20T04:17:31.055Z,1010.97
2023-03-20T04:18:31.232Z,1010.91
2023-03-20T04:19:32.205Z,1010.88
2023-03-20T04:20:31.621Z,1010.92
2023-03-20T04:21:31.813Z,1010.95
2023-03-20T04:22:31.985Z,1010.96
2023-03-20T04:23:32.248Z,1011.05
2023-03-20T04:24:32.766Z,1011.00
2023-03-20T04:25:32.425Z,1011.00
2023-03-20T04:26:32.604Z,1010.93
2023-03-20T04:27:32.783Z,1010.94
2023-03-20T04:28:32.958Z,1010.99
2023-03-20T04:29:33.148Z,1010.96
2023-03-20T04:30:34.210Z,1010.97
2023-03-20T04:31:33.592Z,1010.99
2023-03-20T04:32:33.719Z,1011.04
2023-03-20T04:33:33.810Z,1011.00
2023-03-20T04:34:33.977Z,1011.05
2023-03-20T04:35:36.781Z,1011.03
2023-03-20T04:36:35.209Z,1011.01
2023-03-20T04:37:35.219Z,1011.07
2023-03-20T04:38:34.600Z,1011.06
2023-03-20T04:39:34.781Z,1011.15
2023-03-20T04:40:34.939Z,1011.16
2023-03-20T04:41:36.707Z,1011.17
2023-03-20T04:42:35.755Z,1011.25
2023-03-20T04:43:36.713Z,1011.26
2023-03-20T04:44:35.721Z,1011.23
2023-03-20T04:45:37.085Z,1011.21
2023-03-20T04:46:36.037Z,1011.16
2023-03-20T04:47:36.189Z,1011.12
2023-03-20T04:48:36.329Z,1011.11
2023-03-20T04:49:36.507Z,1011.16
2023-03-20T04:50:36.648Z,1011.14
2023-03-20T04:51:36.794Z,1011.03
2023-03-20T04:52:36.966Z,1011.05
2023-03-20T04:53:37.130Z,1011.06
2023-03-20T04:54:37.292Z,1011.11
2023-03-20T04:55:38.720Z,1011.08
2023-03-20T04:56:37.627Z,1011.10
2023-03-20T04:57:37.769Z,1011.10
2023-03-20T04:58:40.212Z,1011.14
2023-03-20T04:59:38.721Z,1011.18
2023-03-20T05:00:38.292Z,1011.14
2023-03-20T05:01:38.474Z,1011.15
2023-03-20T05:02:38.636Z,1011.12
2023-03-20T05:03:39.000Z,1011.10
2023-03-20T05:04:38.951Z,1011.10
2023-03-20T05:05:39.095Z,1011.11
2023-03-20T05:06:39.754Z,1011.17
2023-03-20T05:07:39.379Z,1011.12
2023-03-20T05:08:39.531Z,1011.07
2023-03-20T05:09:39.669Z,1011.14
2023-03-20T05:10:40.773Z,1011.11
2023-03-20T05:11:40.752Z,1011.09
2023-03-20T05:12:41.719Z,1011.03
2023-03-20T05:13:42.217Z,1011.02
2023-03-20T05:14:40.591Z,1010.99
2023-03-20T05:15:40.739Z,1011.07
2023-03-20T05:16:40.953Z,1011.01
2023-03-20T05:17:41.598Z,1010.99
2023-03-20T05:18:41.233Z,1010.97
2023-03-20T05:19:42.256Z,1010.88
2023-03-20T05:20:41.635Z,1010.85
2023-03-20T05:21:42.713Z,1010.85
2023-03-20T05:22:42.267Z,1010.80
2023-03-20T05:23:42.147Z,1010.82
2023-03-20T05:24:42.294Z,1010.85
2023-03-20T05:25:43.253Z,1010.84
2023-03-20T05:26:42.630Z,1010.80
2023-03-20T05:27:42.807Z,1010.82
2023-03-20T05:28:42.971Z,1010.90
2023-03-20T05:29:44.127Z,1010.91
2023-03-20T05:30:43.344Z,1010.87
2023-03-20T05:31:44.213Z,1010.89
2023-03-20T05:32:43.719Z,1010.88
2023-03-20T05:33:44.712Z,1010.88
2023-03-20T05:34:44.757Z,1010.96
2023-03-20T05:35:44.218Z,1011.00
2023-03-20T05:36:44.368Z,1010.99
2023-03-20T05:37:44.489Z,1010.98
2023-03-20T05:38:44.630Z,1010.96
2023-03-20T05:39:44.797Z,1011.01
2023-03-20T05:40:44.945Z,1011.00
2023-03-20T05:41:45.964Z,1011.10
2023-03-20T05:42:47.216Z,1011.01
2023-03-20T05:43:45.415Z,1011.02
2023-03-20T05:44:46.587Z,1011.03
2023-03-20T05:45:45.725Z,1010.98
2023-03-20T05:46:45.931Z,1010.97
2023-03-20T05:47:46.085Z,1010.93
2023-03-20T05:48:46.262Z,1010.89
2023-03-20T05:49:46.409Z,1010.92
2023-03-20T05:50:47.589Z,1010.98
2023-03-20T05:51:46.845Z,1010.97
2023-03-20T05:52:48.214Z,1011.01
2023-03-20T05:53:47.228Z,1011.06
2023-03-20T05:54:47.382Z,1011.03
2023-03-20T05:55:48.229Z,1010.98
2023-03-20T05:56:47.779Z,1010.97
2023-03-20T05:57:48.278Z,1011.13
2023-03-20T05:58:49.718Z,1011.17
2023-03-20T05:59:49.291Z,1011.21
2023-03-20T06:00:48.558Z,1011.23
2023-03-20T06:01:48.724Z,1011.28
2023-03-20T06:02:49.002Z,1011.21
2023-03-20T06:03:49.755Z,1011.21
2023-03-20T06:04:50.268Z,1011.32
2023-03-20T06:05:49.527Z,1011.39
2023-03-20T06:06:50.266Z,1011.29
2023-03-20T06:07:50.763Z,1011.35
2023-03-20T06:08:50.299Z,1011.37
2023-03-20T06:09:50.188Z,1011.39
2023-03-20T06:10:51.222Z,1011.29
2023-03-20T06:11:50.479Z,1011.29
2023-03-20T06:12:50.614Z,1011.28
2023-03-20T06:13:50.785Z,1011.28
2023-03-20T06:14:51.779Z,1011.24
2023-03-20T06:15:51.226Z,1011.30
2023-03-20T06:16:53.734Z,1011.31
2023-03-20T06:17:51.585Z,1011.19
2023-03-20T06:18:51.748Z,1011.19
2023-03-20T06:19:51.900Z,1011.20
2023-03-20T06:20:52.045Z,1011.22
2023-03-20T06:21:52.766Z,1011.10
2023-03-20T06:22:53.264Z,1011.16
2023-03-20T06:23:52.552Z,1011.11
2023-03-20T06:24:54.823Z,1011.19
2023-03-20T06:25:52.891Z,1011.15
2023-03-20T06:26:53.776Z,1011.13
2023-03-20T06:27:54.595Z,1011.09
2023-03-20T06:28:54.231Z,1011.02
2023-03-20T06:29:53.488Z,1011.00
2023-03-20T06:30:55.781Z,1011.02
2023-03-20T06:31:55.229Z,1011.00
2023-03-20T06:32:54.814Z,1010.93
2023-03-20T06:33:54.147Z,1010.84
2023-03-20T06:34:54.305Z,1010.94
2023-03-20T06:35:55.494Z,1010.95
2023-03-20T06:36:54.630Z,1010.97
2023-03-20T06:37:54.794Z,1011.04
2023-03-20T06:38:54.921Z,1011.01
2023-03-20T06:39:55.075Z,1010.99
2023-03-20T06:40:55.216Z,1011.03
2023-03-20T06:41:55.408Z,1011.04
2023-03-20T06:42:55.794Z,1011.00
2023-03-20T06:43:57.244Z,1011.02
2023-03-20T06:44:56.781Z,1011.03
2023-03-20T06:45:56.045Z,1011.03
2023-03-20T06:46:56.882Z,1011.07
2023-03-20T06:47:56.372Z,1010.99
2023-03-20T06:48:57.240Z,1010.97
2023-03-20T06:49:56.744Z,1010.97
2023-03-20T06:50:56.940Z,1011.09
2023-03-20T06:51:57.117Z,1011.05
2023-03-20T06:52:57.304Z,1011.06
2023-03-20T06:53:57.494Z,1011.08
2023-03-20T06:54:57.676Z,1011.11
2023-03-20T06:55:58.740Z,1011.08
2023-03-20T06:56:58.035Z,1011.08
2023-03-20T06:57:58.782Z,1011.04
2023-03-20T06:58:58.348Z,1011.06
2023-03-20T06:59:59.229Z,1011.03
2023-03-20T07:00:58.651Z,1011.04
2023-03-20T07:01:58.991Z,1011.17
2023-03-20T07:03:01.076Z,1011.11
2023-03-20T07:03:59.776Z,1011.21
2023-03-20T07:04:59.356Z,1011.23
2023-03-20T07:05:59.549Z,1011.14
2023-03-20T07:07:00.299Z,1011.16
2023-03-20T07:07:59.854Z,1011.13
2023-03-20T07:09:00.022Z,1011.16
2023-03-20T07:10:00.216Z,1011.08
2023-03-20T07:11:00.431Z,1011.10
2023-03-20T07:12:02.334Z,1011.11
2023-03-20T07:13:01.796Z,1011.04
2023-03-20T07:14:01.777Z,1011.09
2023-03-20T07:15:01.309Z,1011.08
2023-03-20T07:16:04.905Z,1011.13
2023-03-20T07:17:03.288Z,1011.03
2023-03-20T07:18:02.750Z,1011.15
2023-03-20T07:19:02.777Z,1011.11
2023-03-20T07:20:02.750Z,1011.10
2023-03-20T07:21:02.297Z,1011.12
2023-03-20T07:22:02.830Z,1011.11
2023-03-20T07:23:02.640Z,1011.12
2023-03-20T07:24:02.820Z,1011.10
2023-03-20T07:25:03.035Z,1011.02
2023-03-20T07:26:03.765Z,1011.03
2023-03-20T07:27:03.445Z,1011.06
2023-03-20T07:28:03.636Z,1011.07
2023-03-20T07:29:04.818Z,1011.03
2023-03-20T07:30:04.031Z,1010.96
2023-03-20T07:31:04.866Z,1011.01
2023-03-20T07:32:05.457Z,1010.98
2023-03-20T07:33:04.667Z,1011.04
2023-03-20T07:34:04.771Z,1010.94
2023-03-20T07:35:04.973Z,1010.95
2023-03-20T07:36:05.214Z,1010.89
2023-03-20T07:37:05.411Z,1010.85
2023-03-20T07:38:06.247Z,1010.90
2023-03-20T07:39:07.756Z,1010.91
2023-03-20T07:40:05.915Z,1010.80
2023-03-20T07:41:06.123Z,1010.86
2023-03-20T07:42:06.350Z,1010.90
2023-03-20T07:43:07.274Z,1010.84
2023-03-20T07:44:06.612Z,1010.81
2023-03-20T07:45:06.701Z,1010.75
2023-03-20T07:46:07.026Z,1010.72
2023-03-20T07:47:07.118Z,1010.74
2023-03-20T07:48:07.336Z,1010.73
2023-03-20T07:49:08.272Z,1010.74
2023-03-20T07:50:08.421Z,1010.68
2023-03-20T07:51:10.250Z,1010.77
2023-03-20T07:52:08.042Z,1010.74
2023-03-20T07:53:08.217Z,1010.73
2023-03-20T07:54:08.419Z,1010.67
2023-03-20T07:55:09.256Z,1010.64
2023-03-20T07:56:08.817Z,1010.62
2023-03-20T07:57:09.612Z,1010.64
2023-03-20T07:58:09.164Z,1010.60
2023-03-20T07:59:09.355Z,1010.58
2023-03-20T08:00:09.543Z,1010.42
2023-03-20T08:01:11.265Z,1010.40
2023-03-20T08:02:09.922Z,1010.29
2023-03-20T08:03:10.276Z,1010.24
2023-03-20T08:04:10.354Z,1010.17
2023-03-20T08:05:11.410Z,1010.15
2023-03-20T08:06:10.610Z,1010.09
2023-03-20T08:07:10.905Z,1010.09
2023-03-20T08:08:10.944Z,1009.92
2023-03-20T08:09:11.299Z,1009.93
2023-03-20T08:10:12.122Z,1009.85
2023-03-20T08:11:11.408Z,1009.75
2023-03-20T08:12:11.607Z,1009.81
2023-03-20T08:13:11.774Z,1009.78
2023-03-20T08:14:11.956Z,1009.81
2023-03-20T08:15:12.173Z,1009.93
2023-03-20T08:16:12.386Z,1009.85
2023-03-20T08:17:15.513Z,1009.93
2023-03-20T08:18:13.612Z,1009.88
2023-03-20T08:19:12.878Z,1009.93
2023-03-20T08:20:13.034Z,1009.77
2023-03-20T08:21:13.204Z,1009.69
2023-03-20T08:22:14.253Z,1009.70
2023-03-20T08:23:13.520Z,1009.61
2023-03-20T08:24:13.808Z,1009.45
2023-03-20T08:25:14.804Z,1009.28
2023-03-20T08:26:15.818Z,1009.07
2023-03-20T08:27:14.795Z,1009.06
2023-03-20T08:28:14.341Z,1008.93
2023-03-20T08:29:14.575Z,1008.87
2023-03-20T08:30:16.257Z,1008.85
2023-03-20T08:31:14.975Z,1008.77
2023-03-20T08:32:15.059Z,1008.77
2023-03-20T08:33:15.371Z,1008.70
2023-03-20T08:34:16.300Z,1008.57
2023-03-20T08:35:31.856Z,1008.45
2023-03-20T08:36:18.677Z,1008.42
2023-03-20T08:37:15.933Z,1008.39
2023-03-20T08:38:16.763Z,1008.34
2023-03-20T08:39:16.383Z,1008.20
2023-03-20T08:40:17.419Z,1008.25
2023-03-20T08:41:18.275Z,1008.23
2023-03-20T08:42:18.767Z,1008.38
2023-03-20T08:43:16.889Z,1008.43
2023-03-20T08:44:18.285Z,1008.54
2023-03-20T08:45:17.206Z,1008.60
2023-03-20T08:46:18.382Z,1008.66
2023-03-20T08:47:17.542Z,1008.71
2023-03-20T08:48:17.712Z,1008.80
2023-03-20T08:49:17.838Z,1008.80
2023-03-20T08:50:18.016Z,1008.89
2023-03-20T08:51:18.158Z,1008.95
2023-03-20T08:52:18.309Z,1009.11
2023-03-20T08:53:20.381Z,1009.19
2023-03-20T08:54:18.649Z,1009.32
2023-03-20T08:55:18.789Z,1009.41
2023-03-20T08:56:19.817Z,1009.45
2023-03-20T08:57:19.078Z,1009.49
2023-03-20T08:58:19.271Z,1009.68
2023-03-20T08:59:19.475Z,1009.68
2023-03-20T09:00:19.635Z,1009.72
2023-03-20T09:01:19.835Z,1009.74
2023-03-20T09:02:20.120Z,1009.81
2023-03-20T09:03:20.854Z,1009.90
2023-03-20T09:04:20.429Z,1009.89
2023-03-20T09:05:20.537Z,1009.93
2023-03-20T09:06:20.797Z,1009.91
2023-03-20T09:07:20.920Z,1010.07
2023-03-20T09:08:22.319Z,1009.96
2023-03-20T09:09:21.316Z,1009.97
2023-03-20T09:10:21.459Z,1009.99
2023-03-20T09:11:21.600Z,1010.01
2023-03-20T09:12:21.761Z,1009.93
2023-03-20T09:13:27.694Z,1009.94
2023-03-20T09:14:24.154Z,1009.93
2023-03-20T09:15:23.266Z,1009.91
2023-03-20T09:16:23.375Z,1009.93
2023-03-20T09:17:22.654Z,1009.84
2023-03-20T09:18:24.777Z,1009.88
2023-03-20T09:19:23.061Z,1009.79
2023-03-20T09:20:23.289Z,1009.82
2023-03-20T09:21:23.361Z,1009.64
2023-03-20T09:22:24.283Z,1009.62
2023-03-20T09:23:24.294Z,1009.48
2023-03-20T09:24:23.968Z,1009.42
2023-03-20T09:25:24.326Z,1009.40
2023-03-20T09:26:24.350Z,1009.28
2023-03-20T09:27:24.519Z,1009.26
2023-03-20T09:28:25.274Z,1009.23
2023-03-20T09:29:24.897Z,1009.24
2023-03-20T09:30:25.120Z,1009.20
2023-03-20T09:31:25.322Z,1009.17
2023-03-20T09:32:25.538Z,1009.23
2023-03-20T09:33:25.688Z,1009.22
2023-03-20T09:34:25.882Z,1009.20
2023-03-20T09:35:26.782Z,1009.18
2023-03-20T09:36:26.219Z,1009.10
2023-03-20T09:37:26.409Z,1009.17
2023-03-20T09:38:28.777Z,1009.17
2023-03-20T09:39:27.315Z,1009.21
2023-03-20T09:40:27.006Z,1009.20
2023-03-20T09:41:28.248Z,1009.21
2023-03-20T09:42:28.323Z,1009.26
2023-03-20T09:43:27.473Z,1009.20
2023-03-20T09:44:28.315Z,1009.29
2023-03-20T09:45:27.851Z,1009.31
2023-03-20T09:46:28.123Z,1009.30
2023-03-20T09:47:28.189Z,1009.33
2023-03-20T09:48:28.385Z,1009.28
2023-03-20T09:49:29.322Z,1009.24
2023-03-20T09:50:29.323Z,1009.27
2023-03-20T09:51:28.899Z,1009.29
2023-03-20T09:52:30.644Z,1009.32
2023-03-20T09:53:30.275Z,1009.34
2023-03-20T09:54:30.243Z,1009.35
2023-03-20T09:55:29.719Z,1009.43
2023-03-20T09:56:30.814Z,1009.39
2023-03-20T09:57:30.032Z,1009.37
2023-03-20T09:58:31.775Z,1009.38
2023-03-20T09:59:30.294Z,1009.42
2023-03-20T10:00:30.449Z,1009.38
2023-03-20T10:01:30.596Z,1009.41
2023-03-20T10:02:30.802Z,1009.45
2023-03-20T10:03:31.778Z,1009.40
2023-03-20T10:04:32.195Z,1009.44
2023-03-20T10:05:31.359Z,1009.50
2023-03-20T10:06:31.524Z,1009.46
2023-03-20T10:07:32.324Z,1009.44
2023-03-20T10:08:31.839Z,1009.46
2023-03-20T10:09:32.072Z,1009.40
2023-03-20T10:10:32.288Z,1009.44
2023-03-20T10:11:33.341Z,1009.44
2023-03-20T10:12:32.584Z,1009.46
2023-03-20T10:13:32.758Z,1009.42
2023-03-20T10:14:32.941Z,1009.39
2023-03-20T10:15:33.813Z,1009.52
2023-03-20T10:16:33.384Z,1009.55
2023-03-20T10:17:33.478Z,1009.51
2023-03-20T10:18:34.278Z,1009.52
2023-03-20T10:19:34.321Z,1009.55
2023-03-20T10:20:35.107Z,1009.55
2023-03-20T10:21:34.142Z,1009.47
2023-03-20T10:22:35.301Z,1009.49
2023-03-20T10:23:34.420Z,1009.46
2023-03-20T10:24:34.862Z,1009.49
2023-03-20T10:25:34.752Z,1009.43
2023-03-20T10:26:34.932Z,1009.42
2023-03-20T10:27:35.120Z,1009.48
2023-03-20T10:28:35.309Z,1009.35
2023-03-20T10:29:35.471Z,1009.40
2023-03-20T10:30:35.874Z,1009.32
2023-03-20T10:31:36.418Z,1009.33
2023-03-20T10:32:36.069Z,1009.38
2023-03-20T10:33:36.168Z,1009.36
2023-03-20T10:34:37.317Z,1009.25
2023-03-20T10:35:36.571Z,1009.30
2023-03-20T10:36:36.757Z,1009.30
2023-03-20T10:37:37.790Z,1009.32
2023-03-20T10:38:37.194Z,1009.25
2023-03-20T10:39:37.368Z,1009.32
2023-03-20T10:40:38.729Z,1009.27
2023-03-20T10:41:37.760Z,1009.26
2023-03-20T10:42:37.976Z,1009.26
2023-03-20T10:43:40.538Z,1009.28
2023-03-20T10:44:39.394Z,1009.27
2023-03-20T10:45:38.527Z,1009.25
2023-03-20T10:46:39.364Z,1009.29
2023-03-20T10:47:38.915Z,1009.21
2023-03-20T10:48:39.080Z,1009.27
2023-03-20T10:49:39.251Z,1009.24
2023-03-20T10:50:40.382Z,1009.25
2023-03-20T10:51:39.655Z,1009.32
2023-03-20T10:52:39.843Z,1009.38
2023-03-20T10:53:39.965Z,1009.33
2023-03-20T10:54:40.124Z,1009.31
2023-03-20T10:55:40.281Z,1009.33
2023-03-20T10:56:40.433Z,1009.42
2023-03-20T10:57:40.568Z,1009.43
2023-03-20T10:58:40.719Z,1009.41
2023-03-20T10:59:40.903Z,1009.44
2023-03-20T11:00:41.082Z,1009.38
2023-03-20T11:01:41.255Z,1009.32
2023-03-20T11:02:41.444Z,1009.34
2023-03-20T11:03:41.652Z,1009.33
2023-03-20T11:04:41.794Z,1009.28
2023-03-20T11:05:42.976Z,1009.29
2023-03-20T11:06:42.092Z,1009.39
2023-03-20T11:07:42.236Z,1009.32
2023-03-20T11:08:42.393Z,1009.37
2023-03-20T11:09:42.567Z,1009.33
2023-03-20T11:10:43.356Z,1009.38
2023-03-20T11:11:43.842Z,1009.32
2023-03-20T11:12:43.019Z,1009.30
2023-03-20T11:13:43.807Z,1009.31
2023-03-20T11:14:43.348Z,1009.30
2023-03-20T11:15:43.495Z,1009.22
2023-03-20T11:16:43.740Z,1009.18
2023-03-20T11:17:44.344Z,1009.11
2023-03-20T11:18:43.990Z,1009.12
2023-03-20T11:19:45.847Z,1009.08
2023-03-20T11:20:44.846Z,1009.06
2023-03-20T11:21:44.494Z,1009.00
2023-03-20T11:22:44.699Z,1008.99
2023-03-20T11:23:44.922Z,1008.94
2023-03-20T11:24:45.825Z,1008.93
2023-03-20T11:25:45.864Z,1008.89
2023-03-20T11:26:45.412Z,1008.91
2023-03-20T11:27:45.578Z,1008.78
2023-03-20T11:28:45.789Z,1008.84
2023-03-20T11:29:47.811Z,1008.81
2023-03-20T11:31:03.498Z,1008.85
2023-03-20T11:31:49.326Z,1008.81
2023-03-20T11:32:46.643Z,1008.82
2023-03-20T11:33:48.323Z,1008.80
2023-03-20T11:34:46.963Z,1008.75
2023-03-20T11:35:47.899Z,1008.89
2023-03-20T11:36:53.034Z,1008.84
2023-03-20T11:37:49.470Z,1008.80
2023-03-20T11:38:47.632Z,1008.77
2023-03-20T11:39:47.813Z,1008.92
2023-03-20T11:40:48.811Z,1008.92
2023-03-20T11:41:48.244Z,1008.95
2023-03-20T11:42:48.473Z,1008.96
2023-03-20T11:43:48.721Z,1008.97
2023-03-20T11:44:49.848Z,1009.01
2023-03-20T11:45:49.046Z,1009.00
2023-03-20T11:46:49.157Z,1008.95
2023-03-20T11:47:49.387Z,1008.91
2023-03-20T11:48:49.618Z,1009.00
2023-03-20T11:49:49.834Z,1009.01
2023-03-20T11:50:50.043Z,1009.02
2023-03-20T11:51:50.233Z,1008.87
2023-03-20T11:52:51.312Z,1008.98
2023-03-20T11:53:50.606Z,1009.00
2023-03-20T11:54:50.837Z,1009.01
2023-03-20T11:55:51.020Z,1008.94
2023-03-20T11:56:51.193Z,1008.92
2023-03-20T11:57:51.397Z,1008.84
2023-03-20T11:58:51.578Z,1008.79
2023-03-20T11:59:51.810Z,1008.81
2023-03-20T12:00:51.918Z,1008.74
2023-03-20T12:01:52.121Z,1008.62
2023-03-20T12:02:52.584Z,1008.64
2023-03-20T12:03:54.382Z,1008.59
2023-03-20T12:04:52.699Z,1008.56
2023-03-20T12:05:52.890Z,1008.51
2023-03-20T12:06:53.819Z,1008.46
2023-03-20T12:07:53.202Z,1008.45